Terminal Aerodrome Forecast
Issued by NWS Tulsa, OK

Home | Current Version | Previous Version | Text Only | Print | Product List | Glossary On
Versions: 1 2 3 4 5 6 7 8 9 10 11 12 13 14 15 16 17 18
179
FTPQ31 PGUM 200259 AAA
TAFTSA
TAF AMD
PTSA 200259Z 2003/2024 06008KT P6SM VCSH BKN012 BKN120
      TEMPO 2003/2007 VRB07KT 2SM +SHRA SCT007 OVC012=

USA.gov is the U.S. government's official web portal to all federal, state and local government web resources and services.